createdAt,value
2022-11-23T00:00:46.150Z,100246.06
2022-11-23T00:03:38.514Z,100245.80
2022-11-23T00:06:10.797Z,100246.77
2022-11-23T00:08:43.084Z,100249.86
2022-11-23T00:11:15.888Z,100249.02
2022-11-23T00:13:48.543Z,100249.33
2022-11-23T00:16:22.418Z,100255.73
2022-11-23T00:18:57.008Z,100259.48
2022-11-23T00:24:17.216Z,100263.13
2022-11-23T00:26:49.075Z,100263.97
2022-11-23T00:29:27.494Z,100269.92
2022-11-23T00:31:59.574Z,100271.73
2022-11-23T00:34:31.663Z,100281.64
2022-11-23T00:37:03.561Z,100277.11
2022-11-23T00:39:36.004Z,100275.14
2022-11-23T00:42:07.983Z,100279.42
2022-11-23T00:44:40.544Z,100279.83
2022-11-23T00:47:12.658Z,100277.30
2022-11-23T00:49:44.554Z,100279.98
2022-11-23T00:52:16.461Z,100276.66
2022-11-23T00:54:49.496Z,100273.80
2022-11-23T00:57:24.487Z,100279.46
2022-11-23T00:59:57.064Z,100279.30
2022-11-23T01:02:38.515Z,100280.39
2022-11-23T01:05:11.420Z,100279.59
2022-11-23T01:07:43.348Z,100276.55
2022-11-23T01:10:16.105Z,100273.81
2022-11-23T01:12:48.655Z,100268.20
2022-11-23T01:15:20.738Z,100269.16
2022-11-23T01:17:52.786Z,100266.23
2022-11-23T01:20:24.673Z,100263.44
2022-11-23T01:22:56.791Z,100259.48
2022-11-23T01:25:28.699Z,100266.91
2022-11-23T01:28:03.932Z,100266.17
2022-11-23T01:30:36.642Z,100265.29
2022-11-23T01:33:22.821Z,100262.82
2022-11-23T01:35:57.363Z,100261.20
2022-11-23T01:38:29.668Z,100264.69
2022-11-23T01:41:07.338Z,100264.84
2022-11-23T01:43:39.326Z,100267.45
2022-11-23T01:46:15.965Z,100270.34
2022-11-23T01:48:53.493Z,100269.30
2022-11-23T01:51:30.241Z,100272.98
2022-11-23T01:54:06.764Z,100268.49
2022-11-23T01:56:45.426Z,100270.52
2022-11-23T01:59:20.965Z,100275.64
2022-11-23T02:01:53.341Z,100275.06
2022-11-23T02:04:29.177Z,100275.36
2022-11-23T02:07:10.522Z,100272.84
2022-11-23T02:09:44.228Z,100271.33
2022-11-23T02:12:16.935Z,100267.27
2022-11-23T02:14:49.180Z,100268.42
2022-11-23T02:17:23.287Z,100273.07
2022-11-23T02:20:04.401Z,100268.68
2022-11-23T02:22:49.215Z,100269.58
2022-11-23T02:25:31.805Z,100270.63
2022-11-23T02:28:04.603Z,100271.01
2022-11-23T02:30:37.918Z,100265.80
2022-11-23T02:33:11.961Z,100262.98
2022-11-23T02:35:52.281Z,100266.86
2022-11-23T02:38:26.872Z,100270.50
2022-11-23T02:41:01.813Z,100271.77
2022-11-23T02:43:34.769Z,100277.48
2022-11-23T02:46:07.894Z,100278.33
2022-11-23T02:48:39.788Z,100275.53
2022-11-23T02:51:11.651Z,100274.28
2022-11-23T02:53:43.831Z,100272.55
2022-11-23T02:56:21.190Z,100274.60
2022-11-23T02:58:53.280Z,100271.89
2022-11-23T03:01:25.219Z,100277.70
2022-11-23T03:03:57.541Z,100280.16
2022-11-23T03:06:31.976Z,100283.54
2022-11-23T03:09:03.988Z,100288.89
2022-11-23T03:11:36.177Z,100286.41
2022-11-23T03:14:08.217Z,100287.59
2022-11-23T03:17:07.835Z,100285.92
2022-11-23T03:19:56.953Z,100285.98
2022-11-23T03:22:29.841Z,100289.45
2022-11-23T03:25:01.850Z,100289.78
2022-11-23T03:27:45.881Z,100291.17
2022-11-23T03:30:19.687Z,100288.20
2022-11-23T03:32:53.131Z,100290.73
2022-11-23T03:35:32.619Z,100286.34
2022-11-23T03:38:33.996Z,100283.71
2022-11-23T03:41:07.669Z,100279.49
2022-11-23T03:43:53.332Z,100276.20
2022-11-23T03:46:25.608Z,100275.05
2022-11-23T03:49:01.020Z,100268.41
2022-11-23T03:51:35.012Z,100264.08
2022-11-23T03:54:07.369Z,100258.19
2022-11-23T03:56:39.549Z,100260.05
2022-11-23T03:59:14.150Z,100255.35
2022-11-23T04:01:53.300Z,100258.81
2022-11-23T04:04:33.048Z,100260.80
2022-11-23T04:07:15.120Z,100256.96
2022-11-23T04:09:52.442Z,100253.83
2022-11-23T04:13:12.073Z,100256.10
2022-11-23T04:15:44.173Z,100253.14
2022-11-23T04:18:16.558Z,100250.96
2022-11-23T04:20:48.468Z,100252.02
2022-11-23T04:23:21.538Z,100247.24
2022-11-23T04:25:54.175Z,100247.91
2022-11-23T04:28:26.472Z,100247.64
2022-11-23T04:30:58.922Z,100250.67
2022-11-23T04:33:31.864Z,100248.38
2022-11-23T04:36:04.572Z,100251.36
2022-11-23T04:38:44.527Z,100247.54
2022-11-23T04:41:19.482Z,100244.08
2022-11-23T04:43:52.413Z,100241.92
2022-11-23T04:46:24.675Z,100243.20
2022-11-23T04:48:56.622Z,100242.10
2022-11-23T04:51:37.010Z,100245.33
2022-11-23T04:54:09.586Z,100247.95
2022-11-23T04:56:47.296Z,100252.98
2022-11-23T04:59:31.957Z,100256.14
2022-11-23T05:02:04.280Z,100255.65
2022-11-23T05:04:51.581Z,100250.89
2022-11-23T05:07:23.898Z,100247.27
2022-11-23T05:10:00.017Z,100248.48
2022-11-23T05:12:31.902Z,100252.77
2022-11-23T05:15:04.647Z,100257.70
2022-11-23T05:17:40.058Z,100259.83
2022-11-23T05:20:48.723Z,100258.27
2022-11-23T05:23:21.044Z,100258.66
2022-11-23T05:25:55.344Z,100249.56
2022-11-23T05:28:42.537Z,100258.27
2022-11-23T05:31:19.586Z,100260.65
2022-11-23T05:33:52.040Z,100259.48
2022-11-23T05:36:41.948Z,100265.88
2022-11-23T05:39:18.887Z,100263.38
2022-11-23T05:41:54.457Z,100269.13
2022-11-23T05:44:46.856Z,100272.02
2022-11-23T05:47:24.566Z,100274.85
2022-11-23T05:49:56.775Z,100276.95
2022-11-23T05:52:30.749Z,100276.86
2022-11-23T05:55:02.863Z,100278.74
2022-11-23T05:57:52.715Z,100276.49
2022-11-23T06:00:24.913Z,100279.79
2022-11-23T06:03:03.228Z,100280.52
2022-11-23T06:05:35.740Z,100279.89
2022-11-23T06:08:08.045Z,100278.39
2022-11-23T06:10:40.045Z,100271.21
2022-11-23T06:13:15.011Z,100269.36
2022-11-23T06:15:46.923Z,100267.26
2022-11-23T06:18:19.849Z,100272.24
2022-11-23T06:20:53.726Z,100272.52
2022-11-23T06:23:25.886Z,100275.25
2022-11-23T06:26:12.280Z,100282.39
2022-11-23T06:28:45.847Z,100284.59
2022-11-23T06:31:25.848Z,100287.80
2022-11-23T06:33:57.877Z,100297.38
2022-11-23T06:36:30.773Z,100297.20
2022-11-23T06:39:03.564Z,100297.60
2022-11-23T06:41:35.572Z,100299.09
2022-11-23T06:44:08.192Z,100307.07
2022-11-23T06:46:45.512Z,100305.36
2022-11-23T06:49:19.716Z,100296.67
2022-11-23T06:51:55.761Z,100302.27
2022-11-23T06:54:27.697Z,100307.04
2022-11-23T06:57:00.210Z,100305.40
2022-11-23T06:59:33.295Z,100303.46
2022-11-23T07:02:06.382Z,100301.63
2022-11-23T07:04:41.052Z,100301.90
2022-11-23T07:07:18.027Z,100302.14
2022-11-23T07:10:13.611Z,100307.89
2022-11-23T07:13:17.273Z,100311.81
2022-11-23T07:15:49.236Z,100312.33
2022-11-23T07:18:21.767Z,100312.92
2022-11-23T07:21:00.012Z,100314.15
2022-11-23T07:23:32.999Z,100315.50
2022-11-23T07:26:06.604Z,100320.73
2022-11-23T07:31:41.991Z,100336.41
2022-11-23T07:34:14.118Z,100337.55
2022-11-23T07:36:49.340Z,100337.34
2022-11-23T07:39:36.458Z,100337.88
2022-11-23T07:42:32.279Z,100340.29
2022-11-23T07:45:07.272Z,100346.00
2022-11-23T07:47:41.487Z,100354.19
2022-11-23T07:50:15.119Z,100360.63
2022-11-23T07:52:47.004Z,100360.58
2022-11-23T07:55:18.950Z,100361.40
2022-11-23T07:57:55.328Z,100359.61
2022-11-23T08:00:28.849Z,100360.72
2022-11-23T08:03:26.557Z,100361.63
2022-11-23T08:05:56.699Z,100363.46
2022-11-23T08:08:28.739Z,100366.38
2022-11-23T08:11:00.744Z,100368.57
2022-11-23T08:13:34.751Z,100371.28
2022-11-23T08:16:07.459Z,100371.05
2022-11-23T08:18:39.623Z,100368.07
2022-11-23T08:21:11.600Z,100367.20
2022-11-23T08:23:43.686Z,100366.59
2022-11-23T08:26:15.869Z,100366.58
2022-11-23T08:28:47.910Z,100363.83
2022-11-23T08:31:19.940Z,100361.97
2022-11-23T08:33:52.412Z,100364.46
2022-11-23T08:36:24.487Z,100371.50
2022-11-23T08:38:56.562Z,100378.40
2022-11-23T08:41:28.902Z,100379.89
2022-11-23T08:44:00.945Z,100379.20
2022-11-23T08:46:33.216Z,100377.90
2022-11-23T08:49:05.590Z,100376.47
2022-11-23T08:51:37.782Z,100375.10
2022-11-23T08:54:09.960Z,100371.66
2022-11-23T08:56:42.079Z,100372.28
2022-11-23T08:59:14.061Z,100373.56
2022-11-23T09:01:46.616Z,100376.63
2022-11-23T09:04:20.798Z,100373.23
2022-11-23T09:07:05.396Z,100368.43
2022-11-23T09:09:39.878Z,100366.27
2022-11-23T09:12:12.276Z,100366.77
2022-11-23T09:14:44.533Z,100370.35
2022-11-23T09:17:16.611Z,100371.73
2022-11-23T09:19:50.305Z,100372.02
2022-11-23T09:22:22.489Z,100371.75
2022-11-23T09:24:55.102Z,100366.67
2022-11-23T09:27:27.136Z,100361.00
2022-11-23T09:29:59.281Z,100361.13
2022-11-23T09:32:32.974Z,100360.30
2022-11-23T09:35:05.339Z,100360.90
2022-11-23T09:37:37.593Z,100358.40
2022-11-23T09:40:16.312Z,100361.27
2022-11-23T09:43:04.425Z,100361.23
2022-11-23T09:45:44.709Z,100361.43
2022-11-23T09:48:33.272Z,100358.02
2022-11-23T09:51:12.888Z,100354.92
2022-11-23T09:53:49.394Z,100352.70
2022-11-23T09:56:25.120Z,100348.93
2022-11-23T09:58:59.279Z,100348.05
2022-11-23T10:01:32.160Z,100346.65
2022-11-23T10:04:08.290Z,100343.70
2022-11-23T10:06:43.910Z,100342.01
2022-11-23T10:09:37.986Z,100342.50
2022-11-23T10:12:31.918Z,100340.58
2022-11-23T10:15:20.588Z,100335.59
2022-11-23T10:18:04.642Z,100329.98
2022-11-23T10:20:51.341Z,100328.99
2022-11-23T10:23:48.346Z,100328.95
2022-11-23T10:26:22.930Z,100326.99
2022-11-23T10:28:57.258Z,100329.52
2022-11-23T10:31:31.823Z,100331.23
2022-11-23T10:34:12.978Z,100333.70
2022-11-23T10:36:45.077Z,100330.59
2022-11-23T10:39:27.118Z,100330.77
2022-11-23T10:42:04.489Z,100322.20
2022-11-23T10:44:39.165Z,100321.77
2022-11-23T10:47:11.125Z,100320.02
2022-11-23T10:50:02.046Z,100318.79
2022-11-23T10:52:35.275Z,100313.39
2022-11-23T10:55:12.058Z,100311.62
2022-11-23T10:57:48.220Z,100312.04
2022-11-23T11:00:30.612Z,100309.17
2022-11-23T11:03:22.799Z,100306.98
2022-11-23T11:06:13.633Z,100300.67
2022-11-23T11:08:55.423Z,100299.25
2022-11-23T11:11:29.538Z,100299.39
2022-11-23T11:14:16.991Z,100301.75
2022-11-23T11:16:51.967Z,100302.92
2022-11-23T11:19:32.377Z,100303.52
2022-11-23T11:22:25.657Z,100300.73
2022-11-23T11:24:58.003Z,100300.98
2022-11-23T11:27:32.481Z,100301.52
2022-11-23T11:30:21.467Z,100301.67
2022-11-23T11:33:04.863Z,100299.60
2022-11-23T11:35:41.911Z,100293.42
2022-11-23T11:38:21.629Z,100293.95
2022-11-23T11:40:55.786Z,100296.29
2022-11-23T11:43:39.491Z,100299.83
2022-11-23T11:46:32.126Z,100304.44
2022-11-23T11:49:12.342Z,100300.70
2022-11-23T11:51:48.528Z,100294.82
2022-11-23T11:54:26.947Z,100295.59
2022-11-23T11:57:04.604Z,100292.07
2022-11-23T11:59:43.021Z,100288.17
2022-11-23T12:02:30.556Z,100290.39
2022-11-23T12:05:15.321Z,100290.19
2022-11-23T12:07:59.252Z,100294.16
2022-11-23T12:10:39.664Z,100291.30
2022-11-23T12:13:16.936Z,100292.00
2022-11-23T12:15:54.389Z,100290.18
2022-11-23T12:18:51.461Z,100292.04
2022-11-23T12:21:40.588Z,100296.48
2022-11-23T12:24:21.572Z,100297.73
2022-11-23T12:27:05.605Z,100295.21
2022-11-23T12:30:05.248Z,100297.22
2022-11-23T12:32:52.239Z,100295.71
2022-11-23T12:35:47.608Z,100297.23
2022-11-23T12:38:32.184Z,100298.13
2022-11-23T12:41:16.167Z,100299.83
2022-11-23T12:44:02.556Z,100296.38
2022-11-23T12:46:45.797Z,100295.73
2022-11-23T12:49:36.111Z,100292.66
2022-11-23T12:52:28.562Z,100290.98
2022-11-23T12:55:19.352Z,100289.52
2022-11-23T12:58:01.505Z,100291.39
2022-11-23T13:00:40.491Z,100291.88
2022-11-23T13:03:44.450Z,100296.44
2022-11-23T13:07:20.270Z,100297.48
2022-11-23T13:10:09.175Z,100299.20
2022-11-23T13:13:16.080Z,100301.90
2022-11-23T13:16:17.165Z,100305.07
2022-11-23T13:19:11.933Z,100307.11
2022-11-23T13:21:46.559Z,100308.73
2022-11-23T13:24:30.996Z,100311.34
2022-11-23T13:27:50.488Z,100315.48
2022-11-23T13:30:59.315Z,100315.60
2022-11-23T13:33:38.046Z,100312.71
2022-11-23T13:36:18.432Z,100311.56
2022-11-23T13:38:52.616Z,100315.81
2022-11-23T13:41:55.573Z,100313.02
2022-11-23T13:44:31.518Z,100312.98
2022-11-23T13:47:19.688Z,100317.15
2022-11-23T13:49:52.993Z,100317.28
2022-11-23T13:52:36.862Z,100318.25
2022-11-23T13:55:22.585Z,100318.87
2022-11-23T13:58:29.650Z,100323.32
2022-11-23T14:01:02.628Z,100322.47
2022-11-23T14:04:20.217Z,100319.43
2022-11-23T14:06:57.116Z,100328.14
2022-11-23T14:09:34.948Z,100326.37
2022-11-23T14:12:23.848Z,100326.11
2022-11-23T14:15:03.170Z,100325.15
2022-11-23T14:17:56.048Z,100322.79
2022-11-23T14:20:50.770Z,100320.56
2022-11-23T14:24:04.503Z,100326.77
2022-11-23T14:26:51.077Z,100326.18
2022-11-23T14:29:32.930Z,100327.77
2022-11-23T14:32:24.293Z,100327.17
2022-11-23T14:35:07.735Z,100331.45
2022-11-23T14:37:55.023Z,100332.82
2022-11-23T14:40:32.892Z,100333.85
2022-11-23T14:43:14.305Z,100329.00
2022-11-23T14:45:48.089Z,100335.44
2022-11-23T14:48:32.237Z,100330.52
2022-11-23T14:51:07.369Z,100336.30
2022-11-23T14:53:47.345Z,100340.84
2022-11-23T14:56:30.912Z,100337.44
2022-11-23T14:59:07.111Z,100342.22
2022-11-23T15:01:42.731Z,100343.95
2022-11-23T15:04:26.307Z,100354.85
2022-11-23T15:07:02.059Z,100358.87
2022-11-23T15:09:50.373Z,100362.41
2022-11-23T15:12:27.412Z,100365.38
2022-11-23T15:14:59.931Z,100366.41
2022-11-23T15:17:32.436Z,100369.35
2022-11-23T15:20:06.537Z,100367.69
2022-11-23T15:22:39.221Z,100367.80
2022-11-23T15:25:19.335Z,100368.66
2022-11-23T15:27:51.498Z,100367.27
2022-11-23T15:30:29.999Z,100366.02
2022-11-23T15:33:05.451Z,100367.42
2022-11-23T15:35:40.030Z,100365.83
2022-11-23T15:38:20.498Z,100367.68
2022-11-23T15:41:05.470Z,100367.64
2022-11-23T15:43:37.587Z,100364.14
2022-11-23T15:46:14.525Z,100357.09
2022-11-23T15:48:51.169Z,100356.55
2022-11-23T15:51:30.326Z,100358.89
2022-11-23T15:54:03.154Z,100362.13
2022-11-23T15:56:37.261Z,100363.86
2022-11-23T15:59:29.617Z,100358.45
2022-11-23T16:02:03.296Z,100361.80
2022-11-23T16:04:40.035Z,100361.95
2022-11-23T16:07:21.377Z,100366.33
2022-11-23T16:10:08.197Z,100369.60
2022-11-23T16:12:50.090Z,100370.35
2022-11-23T16:15:59.584Z,100368.30
2022-11-23T16:18:33.046Z,100367.15
2022-11-23T16:21:06.465Z,100366.73
2022-11-23T16:23:46.607Z,100362.52
2022-11-23T16:26:19.243Z,100366.81
2022-11-23T16:28:56.548Z,100370.97
2022-11-23T16:31:31.590Z,100373.05
2022-11-23T16:34:03.666Z,100370.99
2022-11-23T16:36:35.776Z,100372.77
2022-11-23T16:39:07.850Z,100373.97
2022-11-23T16:41:40.516Z,100374.63
2022-11-23T16:44:12.757Z,100376.05
2022-11-23T16:46:46.784Z,100379.98
2022-11-23T16:49:21.815Z,100382.70
2022-11-23T16:51:57.104Z,100379.55
2022-11-23T16:54:29.490Z,100382.05
2022-11-23T16:57:01.809Z,100386.09
2022-11-23T16:59:35.382Z,100391.77
2022-11-23T17:02:14.519Z,100385.21
2022-11-23T17:04:47.230Z,100395.30
2022-11-23T17:07:19.325Z,100395.06
2022-11-23T17:09:51.707Z,100393.92
2022-11-23T17:12:23.661Z,100394.73
2022-11-23T17:14:55.779Z,100398.23
2022-11-23T17:17:30.086Z,100398.42
2022-11-23T17:20:04.604Z,100395.38
2022-11-23T17:22:37.074Z,100385.38
2022-11-23T17:25:14.925Z,100386.44
2022-11-23T17:27:48.340Z,100397.08
2022-11-23T17:30:22.729Z,100401.21
2022-11-23T17:32:55.262Z,100402.92
2022-11-23T17:35:35.268Z,100401.80
2022-11-23T17:38:13.301Z,100396.29
2022-11-23T17:40:46.544Z,100394.72
2022-11-23T17:43:21.007Z,100392.63
2022-11-23T17:45:55.730Z,100393.93
2022-11-23T17:48:28.830Z,100395.13
2022-11-23T17:51:01.133Z,100395.92
2022-11-23T17:53:33.042Z,100395.73
2022-11-23T17:56:05.384Z,100396.17
2022-11-23T17:58:37.516Z,100396.20
2022-11-23T18:01:12.940Z,100394.80
2022-11-23T18:03:46.115Z,100395.65
2022-11-23T18:06:21.215Z,100396.73
2022-11-23T18:08:54.135Z,100397.66
2022-11-23T18:11:28.599Z,100399.95
2022-11-23T18:14:00.709Z,100398.57
2022-11-23T18:16:35.780Z,100399.52
2022-11-23T18:19:07.748Z,100400.42
2022-11-23T18:21:39.940Z,100400.97
2022-11-23T18:24:12.254Z,100402.14
2022-11-23T18:26:44.597Z,100399.07
2022-11-23T18:29:17.403Z,100399.86
2022-11-23T18:31:49.867Z,100402.42
2022-11-23T18:34:22.006Z,100402.17
2022-11-23T18:36:54.275Z,100400.73
2022-11-23T18:39:26.511Z,100400.11
2022-11-23T18:42:04.120Z,100399.09
2022-11-23T18:44:38.019Z,100399.70
2022-11-23T18:47:10.286Z,100400.34
2022-11-23T18:49:42.189Z,100402.20
2022-11-23T18:52:14.353Z,100404.55
2022-11-23T18:54:46.305Z,100402.35
2022-11-23T18:57:19.178Z,100402.78
2022-11-23T18:59:59.201Z,100405.54
2022-11-23T19:02:31.611Z,100411.61
2022-11-23T19:05:03.719Z,100411.75
2022-11-23T19:07:35.773Z,100413.20
2022-11-23T19:10:09.613Z,100422.25
2022-11-23T19:12:41.823Z,100425.30
2022-11-23T19:15:14.378Z,100428.70
2022-11-23T19:17:47.871Z,100429.92
2022-11-23T19:20:21.392Z,100425.48
2022-11-23T19:22:55.178Z,100425.42
2022-11-23T19:25:27.190Z,100424.77
2022-11-23T19:28:01.394Z,100425.84
2022-11-23T19:30:33.780Z,100427.20
2022-11-23T19:33:05.903Z,100421.94
2022-11-23T19:35:40.283Z,100419.20
2022-11-23T19:38:12.512Z,100422.50
2022-11-23T19:40:44.614Z,100421.30
2022-11-23T19:43:16.906Z,100424.94
2022-11-23T19:45:57.628Z,100432.27
2022-11-23T19:48:32.373Z,100428.10
2022-11-23T19:51:06.543Z,100430.85
2022-11-23T19:53:40.326Z,100431.00
2022-11-23T19:56:15.180Z,100428.35
2022-11-23T19:58:47.630Z,100432.69
2022-11-23T20:01:21.750Z,100433.59
2022-11-23T20:03:55.588Z,100436.88
2022-11-23T20:06:29.558Z,100434.88
2022-11-23T20:09:03.278Z,100433.77
2022-11-23T20:11:36.336Z,100428.07
2022-11-23T20:14:10.304Z,100429.93
2022-11-23T20:16:42.627Z,100433.89
2022-11-23T20:19:16.186Z,100432.40
2022-11-23T20:21:53.404Z,100438.59
2022-11-23T20:24:28.329Z,100434.17
2022-11-23T20:27:00.443Z,100434.77
2022-11-23T20:29:32.774Z,100434.56
2022-11-23T20:32:05.520Z,100436.01
2022-11-23T20:34:37.828Z,100439.70
2022-11-23T20:37:09.937Z,100438.56
2022-11-23T20:39:41.947Z,100442.90
2022-11-23T20:42:13.833Z,100446.97
2022-11-23T20:44:46.020Z,100447.60
2022-11-23T20:47:18.040Z,100448.35
2022-11-23T20:49:52.461Z,100451.59
2022-11-23T20:52:24.599Z,100454.07
2022-11-23T20:54:57.053Z,100454.02
2022-11-23T20:57:29.031Z,100452.06
2022-11-23T21:00:03.059Z,100450.36
2022-11-23T21:02:35.000Z,100448.68
2022-11-23T21:05:08.117Z,100445.64
2022-11-23T21:07:41.456Z,100444.26
2022-11-23T21:10:34.321Z,100442.96
2022-11-23T21:13:24.138Z,100443.23
2022-11-23T21:15:56.130Z,100449.59
2022-11-23T21:18:28.075Z,100454.75
2022-11-23T21:21:00.688Z,100455.85
2022-11-23T21:23:34.547Z,100454.75
2022-11-23T21:26:08.007Z,100453.65
2022-11-23T21:28:39.982Z,100452.16
2022-11-23T21:31:15.260Z,100455.54
2022-11-23T21:33:52.019Z,100456.41
2022-11-23T21:36:26.550Z,100460.65
2022-11-23T21:38:58.499Z,100461.50
2022-11-23T21:41:30.431Z,100463.66
2022-11-23T21:44:04.982Z,100466.30
2022-11-23T21:46:38.323Z,100468.48
2022-11-23T21:49:11.654Z,100469.76
2022-11-23T21:51:47.655Z,100468.36
2022-11-23T21:54:19.947Z,100466.98
2022-11-23T21:56:54.054Z,100468.02
2022-11-23T21:59:26.267Z,100466.40
2022-11-23T22:02:00.360Z,100469.02
2022-11-23T22:04:32.905Z,100471.51
2022-11-23T22:07:05.212Z,100470.67
2022-11-23T22:09:40.309Z,100477.48
2022-11-23T22:12:12.227Z,100484.38
2022-11-23T22:14:56.118Z,100487.85
2022-11-23T22:17:28.668Z,100488.12
2022-11-23T22:20:00.592Z,100494.86
2022-11-23T22:22:33.014Z,100495.70
2022-11-23T22:25:05.542Z,100504.43
2022-11-23T22:27:40.187Z,100506.77
2022-11-23T22:30:16.628Z,100503.40
2022-11-23T22:32:48.888Z,100501.34
2022-11-23T22:35:21.191Z,100505.27
2022-11-23T22:37:53.388Z,100504.79
2022-11-23T22:40:27.023Z,100506.70
2022-11-23T22:43:01.198Z,100504.74
2022-11-23T22:45:33.790Z,100500.16
2022-11-23T22:48:06.395Z,100502.93
2022-11-23T22:50:39.077Z,100502.75
2022-11-23T22:53:11.391Z,100503.86
2022-11-23T22:55:43.377Z,100504.93
2022-11-23T22:58:15.601Z,100502.77
2022-11-23T23:00:48.207Z,100506.81
2022-11-23T23:03:20.260Z,100510.82
2022-11-23T23:05:58.635Z,100510.81
2022-11-23T23:08:31.564Z,100505.09
2022-11-23T23:11:07.449Z,100505.98
2022-11-23T23:13:39.569Z,100507.36
2022-11-23T23:16:14.504Z,100508.84
2022-11-23T23:18:48.219Z,100501.59
2022-11-23T23:21:22.696Z,100495.34
2022-11-23T23:23:56.937Z,100493.25
2022-11-23T23:26:30.477Z,100493.43
2022-11-23T23:29:03.390Z,100490.19
2022-11-23T23:31:37.455Z,100492.36
2022-11-23T23:34:09.840Z,100485.48
2022-11-23T23:36:41.792Z,100484.63
2022-11-23T23:39:14.256Z,100483.31
2022-11-23T23:41:47.040Z,100484.91
2022-11-23T23:44:19.991Z,100484.84
2022-11-23T23:46:51.852Z,100487.70
2022-11-23T23:49:31.468Z,100490.09
2022-11-23T23:52:05.323Z,100493.73
2022-11-23T23:54:37.510Z,100497.91
2022-11-23T23:57:11.944Z,100499.28
2022-11-23T23:59:44.205Z,100502.13
